Time;durP1;ratioP1;P1;durP2;ratioP2;P2;SDS_P1;SDS_P2;PMS_P1;PMS_P2;Temp;Humidity;BMP_temperature;BMP_pressure;BME280_temperature;BME280_humidity;BME280_pressure;Samples;Min_cycle;Max_cycle;Signal;HPM_P1;HPM_P2
2022/12/22 03:27:16;;;;;;;;;;;;;;;-1.01;68.23;95443.03;5115640;28;1975;-61
2022/12/22 03:29:42;;;;;;;;;;;;;;;-0.96;67.99;95445.41;5115189;28;1035;-61
2022/12/22 03:32:08;;;;;;;;;;;;;;;-0.88;67.43;95448.47;5115317;28;959;-61
2022/12/22 03:34:34;;;;;;;;;;;;;;;-0.96;67.58;95438.38;5113859;28;1032;-60
2022/12/22 03:37:00;;;;;;;;;;;;;;;-1.04;67.49;95437.97;5114188;28;1019;-60
2022/12/22 03:39:27;;;;;;;;;;;;;;;-1.12;66.97;95441.00;5113801;28;1031;-60
2022/12/22 03:47:22;;;;;;;;;;;;;;;-1.00;68.60;95434.25;5114973;28;1909;-61
2022/12/22 03:49:48;;;;;;;;;;;;;;;-0.89;67.45;95431.00;5114887;28;1040;-61
2022/12/22 03:52:14;;;;;;;;;;;;;;;-0.90;67.65;95438.03;5113678;28;1023;-61
2022/12/22 03:54:40;;;;;;;;;;;;;;;-0.91;67.90;95443.38;5114798;28;1013;-61
2022/12/22 03:57:06;;;;;;;;;;;;;;;-0.86;67.79;95438.72;5114871;28;1043;-61
2022/12/22 03:59:32;;;;;;;;;;;;;;;-0.87;67.32;95442.28;5114386;28;1219;-61
2022/12/22 04:01:58;;;;;;;;;;;;;;;-1.01;66.19;95436.00;5114614;28;1039;-61
2022/12/22 04:04:25;;;;;;;;;;;;;;;-1.17;66.78;95434.31;5114768;28;979;-61
2022/12/22 04:06:52;;;;;;;;;;;;;;;-1.28;67.63;95440.97;5113470;28;1987;-61
2022/12/22 04:09:18;;;;;;;;;;;;;;;-1.21;67.57;95452.00;5114035;28;1042;-61
2022/12/22 04:14:28;;;;;;;;;;;;;;;-1.21;66.21;95433.63;5114421;27;1063;-61
2022/12/22 04:16:54;;;;;;;;;;;;;;;-1.29;67.48;95441.91;5114351;28;1020;-61
2022/12/22 04:19:20;;;;;;;;;;;;;;;-1.26;66.86;95438.28;5114457;28;1039;-60
2022/12/22 04:21:46;;;;;;;;;;;;;;;-1.32;67.17;95438.59;5114432;27;1038;-61
2022/12/22 04:24:13;;;;;;;;;;;;;;;-1.38;67.73;95440.63;5114227;28;1087;-61
2022/12/22 04:26:39;;;;;;;;;;;;;;;-1.47;67.57;95437.63;5114078;28;1976;-61
2022/12/22 04:29:05;;;;;;;;;;;;;;;-1.50;67.75;95435.16;5114204;28;952;-61
2022/12/22 04:31:31;;;;;;;;;;;;;;;-1.50;67.46;95433.41;5113107;28;1047;-61
2022/12/22 04:33:57;;;;;;;;;;;;;;;-1.48;68.24;95435.94;5147020;27;1067;-61
2022/12/22 04:36:23;;;;;;;;;;;;;;;-1.40;68.05;95424.13;5112811;28;1044;-60
2022/12/22 04:38:49;;;;;;;;;;;;;;;-1.31;67.56;95422.78;5147089;27;987;-61
2022/12/22 04:41:15;;;;;;;;;;;;;;;-1.35;67.32;95410.75;5112847;28;1063;-61
2022/12/22 04:43:41;;;;;;;;;;;;;;;-1.44;67.10;95417.34;5112627;28;1050;-61
2022/12/22 04:46:07;;;;;;;;;;;;;;;-1.53;67.34;95417.81;5112898;28;1995;-61
2022/12/22 04:48:33;;;;;;;;;;;;;;;-1.47;68.34;95419.28;5113765;28;1251;-61
2022/12/22 04:50:59;;;;;;;;;;;;;;;-1.33;68.07;95431.66;5113974;28;964;-61
2022/12/22 04:53:27;;;;;;;;;;;;;;;-1.27;67.45;95426.94;5112579;28;1106;-61
2022/12/22 04:55:57;;;;;;;;;;;;;;;-1.37;67.03;95430.97;5113856;28;1031;-61
2022/12/22 04:58:23;;;;;;;;;;;;;;;-1.36;67.73;95437.06;5113786;28;1234;-61
2022/12/22 05:00:49;;;;;;;;;;;;;;;-1.29;67.17;95439.28;5112816;28;1027;-61
2022/12/22 05:03:16;;;;;;;;;;;;;;;-1.23;66.83;95441.56;5114021;28;1053;-61
2022/12/22 05:05:42;;;;;;;;;;;;;;;-1.23;66.67;95440.75;5113770;28;1067;-61
2022/12/22 05:08:08;;;;;;;;;;;;;;;-1.32;66.79;95443.84;5113756;28;1911;-61
2022/12/22 05:10:34;;;;;;;;;;;;;;;-1.30;67.46;95445.44;5112429;28;1040;-61
2022/12/22 05:13:00;;;;;;;;;;;;;;;-1.31;67.15;95450.78;5112734;28;976;-61
2022/12/22 05:15:30;;;;;;;;;;;;;;;-1.25;66.86;95450.44;5113606;28;1098;-61
2022/12/22 05:17:58;;;;;;;;;;;;;;;-1.19;66.84;95452.75;5113697;28;1064;-61
2022/12/22 05:20:24;;;;;;;;;;;;;;;-1.26;65.67;95444.34;5116942;28;1094;-61
2022/12/22 05:22:50;;;;;;;;;;;;;;;-1.47;66.89;95443.72;5116576;28;1084;-61
2022/12/22 05:25:17;;;;;;;;;;;;;;;-1.54;67.83;95444.13;5117686;28;1014;-61
2022/12/22 05:27:43;;;;;;;;;;;;;;;-1.47;67.81;95448.13;5117523;28;1878;-61
2022/12/22 05:30:10;;;;;;;;;;;;;;;-1.41;67.13;95456.50;5099782;28;1469;-60
2022/12/22 05:32:36;;;;;;;;;;;;;;;-1.41;66.24;95453.03;5117686;28;972;-61
2022/12/22 05:35:02;;;;;;;;;;;;;;;-1.50;66.31;95456.16;5116460;28;989;-61
2022/12/22 05:37:28;;;;;;;;;;;;;;;-1.60;67.87;95451.38;5117556;28;963;-61
2022/12/22 05:39:55;;;;;;;;;;;;;;;-1.50;67.15;95443.91;5116199;28;1316;-61
2022/12/22 05:42:36;;;;;;;;;;;;;;;-1.51;65.93;95443.97;5116443;28;1012;-61
2022/12/22 05:45:13;;;;;;;;;;;;;;;-1.60;66.25;95442.69;5117589;28;959;-61
2022/12/22 05:47:40;;;;;;;;;;;;;;;-1.71;66.15;95432.75;5117063;27;1905;-61
2022/12/22 05:50:07;;;;;;;;;;;;;;;-1.77;67.62;95425.19;5117319;28;1096;-61
2022/12/22 05:52:34;;;;;;;;;;;;;;;-1.68;67.89;95429.97;5117075;28;1102;-60
2022/12/22 05:55:00;;;;;;;;;;;;;;;-1.72;67.73;95430.22;5117210;28;1082;-61
2022/12/22 05:57:26;;;;;;;;;;;;;;;-1.57;68.35;95432.03;5150246;27;1058;-61
2022/12/22 05:59:52;;;;;;;;;;;;;;;-1.42;67.92;95428.59;5116834;28;1548;-61
2022/12/22 06:02:18;;;;;;;;;;;;;;;-1.26;67.55;95427.78;5115882;28;988;-61
2022/12/22 06:04:44;;;;;;;;;;;;;;;-1.19;66.80;95431.75;5115783;28;1020;-61
2022/12/22 06:07:11;;;;;;;;;;;;;;;-1.22;66.80;95435.38;5115587;28;1905;-61
2022/12/22 06:09:37;;;;;;;;;;;;;;;-1.15;66.73;95435.91;5115642;28;1048;-61
2022/12/22 06:12:03;;;;;;;;;;;;;;;-1.15;65.89;95443.78;5116778;28;1049;-61
2022/12/22 06:14:29;;;;;;;;;;;;;;;-1.26;65.46;95440.91;5115646;28;964;-61
2022/12/22 06:16:55;;;;;;;;;;;;;;;-1.45;66.30;95443.66;5116889;28;1047;-61
2022/12/22 06:19:21;;;;;;;;;;;;;;;-1.50;67.02;95437.78;5116638;28;1110;-61
2022/12/22 06:21:47;;;;;;;;;;;;;;;-1.48;67.31;95446.41;5116652;28;944;-61
2022/12/22 06:24:14;;;;;;;;;;;;;;;-1.53;69.02;95437.97;5116823;28;1039;-60
2022/12/22 06:26:40;;;;;;;;;;;;;;;-1.47;68.80;95445.50;5116420;28;1902;-61
2022/12/22 06:29:06;;;;;;;;;;;;;;;-1.26;68.56;95448.75;5116713;28;969;-61
2022/12/22 06:31:32;;;;;;;;;;;;;;;-1.05;68.13;95450.22;5115755;28;975;-61
2022/12/22 06:33:58;;;;;;;;;;;;;;;-0.87;67.18;95439.66;5115160;28;1194;-61
2022/12/22 06:36:24;;;;;;;;;;;;;;;-0.43;65.72;95439.78;5114967;28;1048;-61
2022/12/22 06:38:50;;;;;;;;;;;;;;;2.02;58.65;95444.97;5116529;28;1052;-61
2022/12/22 06:43:07;;;;;;;;;;;;;;;5.77;49.28;95467.72;5115148;28;1020;-61
2022/12/22 06:44:05;;;;;;;;;;;;;;;8.40;41.67;95482.47;5116526;28;1003;-61
2022/12/22 06:46:31;;;;;;;;;;;;;;;10.58;38.07;95494.78;5115974;28;1992;-62
2022/12/22 06:48:57;;;;;;;;;;;;;;;12.13;35.38;95504.03;5114669;28;1256;-62
2022/12/22 06:51:23;;;;;;;;;;;;;;;11.29;35.80;95511.75;5116273;28;971;-62
2022/12/22 06:53:49;;;;;;;;;;;;;;;11.36;36.27;95507.44;5116251;28;1062;-62
2022/12/22 06:56:15;;;;;;;;;;;;;;;10.72;37.17;95501.44;5114735;28;984;-62
2022/12/22 06:58:41;;;;;;;;;;;;;;;12.50;35.12;95507.16;5114562;28;1404;-59
2022/12/22 07:01:07;;;;;;;;;;;;;;;15.71;30.28;95535.59;5115887;28;1039;-59
2022/12/22 07:03:33;;;;;;;;;;;;;;;16.58;28.30;95546.59;5115763;28;1114;-60
2022/12/22 07:05:59;;;;;;;;;;;;;;;15.02;30.84;95531.97;5115666;28;1988;-60
2022/12/22 07:08:26;;;;;;;;;;;;;;;17.83;27.28;95549.09;5114418;28;1104;-61
2022/12/22 07:10:58;;;;;;;;;;;;;;;19.83;25.86;95549.94;5114600;28;1054;-60
2022/12/22 07:13:26;;;;;;;;;;;;;;;21.37;23.24;95567.44;5115763;28;936;-62
2022/12/22 07:15:52;;;;;;;;;;;;;;;21.76;23.03;95562.81;5115592;28;1095;-62
2022/12/22 07:18:19;;;;;;;;;;;;;;;21.63;23.10;95560.19;5114387;28;1117;-62
2022/12/22 07:20:45;;;;;;;;;;;;;;;19.38;25.01;95552.38;5114618;28;1043;-61
2022/12/22 07:23:12;;;;;;;;;;;;;;;13.24;32.12;95527.84;5115458;28;1239;-60
2022/12/22 07:25:38;;;;;;;;;;;;;;;8.79;40.03;95500.28;5115543;28;1028;-60
2022/12/22 07:28:05;;;;;;;;;;;;;;;6.39;45.87;95471.53;5115349;28;1953;-60
2022/12/22 07:30:31;;;;;;;;;;;;;;;4.83;49.69;95455.69;5115316;28;1203;-60
2022/12/22 07:32:57;;;;;;;;;;;;;;;4.01;52.99;95445.13;5114088;28;1074;-60
2022/12/22 07:35:23;;;;;;;;;;;;;;;3.41;55.19;95429.16;5115207;28;1067;-60
2022/12/22 07:37:49;;;;;;;;;;;;;;;3.17;56.78;95428.28;5115441;28;1014;-60
2022/12/22 07:40:16;;;;;;;;;;;;;;;3.08;57.71;95421.88;5115253;28;1103;-60
2022/12/22 07:42:45;;;;;;;;;;;;;;;3.02;58.70;95428.44;5113970;28;1044;-59
2022/12/22 07:45:11;;;;;;;;;;;;;;;3.05;58.08;95419.44;5115168;28;964;-59
2022/12/22 07:47:38;;;;;;;;;;;;;;;3.00;58.32;95426.84;5114736;28;1898;-59
2022/12/22 07:52:49;;;;;;;;;;;;;;;3.15;58.72;95425.78;5114923;28;1035;-59
2022/12/22 07:55:15;;;;;;;;;;;;;;;3.24;58.46;95429.53;5114923;28;1039;-59
2022/12/22 07:57:41;;;;;;;;;;;;;;;3.27;59.12;95422.25;5147841;27;1039;-60
2022/12/22 08:00:07;;;;;;;;;;;;;;;3.24;59.62;95430.38;5114620;28;1140;-60
2022/12/22 08:02:34;;;;;;;;;;;;;;;3.31;60.03;95429.00;5114903;28;1030;-60
2022/12/22 08:05:00;;;;;;;;;;;;;;;3.29;59.87;95425.63;5114945;28;944;-59
2022/12/22 08:07:26;;;;;;;;;;;;;;;3.37;59.87;95430.34;5114670;28;1910;-59
2022/12/22 08:09:52;;;;;;;;;;;;;;;3.41;60.39;95430.97;5114729;28;1028;-59
2022/12/22 08:12:18;;;;;;;;;;;;;;;3.51;59.82;95434.66;5114522;28;1003;-60
2022/12/22 08:14:44;;;;;;;;;;;;;;;3.68;59.90;95436.06;5113321;28;996;-59
2022/12/22 08:17:11;;;;;;;;;;;;;;;3.76;59.72;95438.16;5113335;28;1044;-59
2022/12/22 08:19:37;;;;;;;;;;;;;;;3.81;59.89;95446.59;5114334;28;1035;-60
2022/12/22 08:22:03;;;;;;;;;;;;;;;3.81;59.88;95449.22;5114465;28;1028;-60
2022/12/22 08:24:29;;;;;;;;;;;;;;;3.87;59.76;95446.13;5114474;28;976;-59
2022/12/22 08:26:58;;;;;;;;;;;;;;;3.92;59.78;95449.28;5114347;28;1914;-60
2022/12/22 08:29:27;;;;;;;;;;;;;;;3.89;59.50;95439.78;5114168;28;1062;-59
2022/12/22 08:31:54;;;;;;;;;;;;;;;3.85;60.04;95446.25;5114253;28;1075;-60
2022/12/22 08:34:20;;;;;;;;;;;;;;;3.77;60.11;95447.78;5114158;28;1020;-59
2022/12/22 08:36:48;;;;;;;;;;;;;;;3.77;60.92;95451.25;5114316;28;973;-60
2022/12/22 08:39:15;;;;;;;;;;;;;;;3.66;61.18;95441.47;5114278;28;968;-59
2022/12/22 08:41:50;;;;;;;;;;;;;;;3.68;61.36;95436.91;5114134;28;1162;-59
2022/12/22 08:44:17;;;;;;;;;;;;;;;3.60;61.47;95435.78;5113159;28;1039;-59
2022/12/22 08:46:43;;;;;;;;;;;;;;;3.65;61.45;95437.13;5113949;28;1926;-59
2022/12/22 08:49:09;;;;;;;;;;;;;;;3.70;61.59;95432.34;5114187;28;1549;-60
2022/12/22 08:51:35;;;;;;;;;;;;;;;3.74;61.13;95434.75;5114073;28;1095;-59
2022/12/22 08:54:02;;;;;;;;;;;;;;;3.91;60.70;95429.09;5113691;28;1098;-60
2022/12/22 08:56:28;;;;;;;;;;;;;;;4.03;60.18;95416.75;5113805;28;1079;-60
2022/12/22 08:58:54;;;;;;;;;;;;;;;4.11;60.37;95417.00;5113703;28;1262;-60
2022/12/22 09:01:21;;;;;;;;;;;;;;;4.28;59.10;95418.38;5112674;28;1093;-59
2022/12/22 09:03:48;;;;;;;;;;;;;;;4.42;58.60;95415.56;5113886;28;1036;-60
2022/12/22 09:06:15;;;;;;;;;;;;;;;4.55;58.43;95404.00;5113850;28;1930;-60
2022/12/22 09:08:41;;;;;;;;;;;;;;;4.67;57.87;95413.66;5112586;28;973;-61
2022/12/22 09:11:07;;;;;;;;;;;;;;;4.81;57.42;95400.19;5113688;28;1091;-61
2022/12/22 09:13:33;;;;;;;;;;;;;;;5.00;57.58;95402.22;5113923;28;1023;-60
2022/12/22 09:16:03;;;;;;;;;;;;;;;5.17;57.36;95405.34;5114005;28;987;-60
2022/12/22 09:18:29;;;;;;;;;;;;;;;5.51;56.66;95398.19;5114188;28;1018;-60
2022/12/22 09:20:55;;;;;;;;;;;;;;;6.35;54.49;95392.22;5113761;28;1174;-61
2022/12/22 09:23:21;;;;;;;;;;;;;;;7.71;52.04;95391.97;5113620;28;1024;-60
2022/12/22 09:25:47;;;;;;;;;;;;;;;11.79;43.20;95409.25;5113655;28;1040;-59
2022/12/22 09:28:13;;;;;;;;;;;;;;;16.51;34.97;95432.31;5113492;28;1902;-60
2022/12/22 09:30:39;;;;;;;;;;;;;;;19.07;30.61;95456.22;5113688;28;1023;-60
2022/12/22 09:33:05;;;;;;;;;;;;;;;20.44;28.72;95456.47;5113747;28;968;-61
2022/12/22 09:35:31;;;;;;;;;;;;;;;21.18;27.48;95459.63;5113507;28;1058;-63
2022/12/22 09:37:57;;;;;;;;;;;;;;;22.53;26.10;95467.19;5113555;28;980;-61
2022/12/22 09:40:25;;;;;;;;;;;;;;;21.97;25.83;95473.66;5113386;28;965;-62
2022/12/22 09:42:51;;;;;;;;;;;;;;;19.00;28.90;95448.06;5112469;28;968;-61
2022/12/22 09:45:20;;;;;;;;;;;;;;;16.23;32.75;95431.38;5113648;28;928;-61
2022/12/22 09:47:52;;;;;;;;;;;;;;;16.40;33.26;95419.31;5113233;28;1906;-61
2022/12/22 09:50:22;;;;;;;;;;;;;;;20.72;28.26;95428.16;5113455;28;1024;-61
2022/12/22 09:52:50;;;;;;;;;;;;;;;24.13;24.45;95444.84;5113368;28;968;-62
2022/12/22 09:55:22;;;;;;;;;;;;;;;25.43;22.16;95449.94;5113327;28;1094;-62
2022/12/22 10:01:57;;;;;;;;;;;;;;;23.92;23.19;95443.53;5101161;28;1135;-63
2022/12/22 10:04:36;;;;;;;;;;;;;;;20.77;26.73;95418.31;5105077;28;1323;-62
2022/12/22 10:07:08;;;;;;;;;;;;;;;19.37;28.08;95398.84;5115629;28;1901;-63
2022/12/22 10:09:34;;;;;;;;;;;;;;;18.69;29.52;95380.91;5116793;28;1036;-62
2022/12/22 10:12:02;;;;;;;;;;;;;;;18.01;30.03;95375.50;5115606;28;1036;-62
2022/12/22 10:14:33;;;;;;;;;;;;;;;17.41;30.62;95375.13;5116749;28;1099;-62
2022/12/22 10:17:14;;;;;;;;;;;;;;;16.70;31.76;95362.53;5116948;28;944;-61
2022/12/22 10:19:41;;;;;;;;;;;;;;;16.71;31.66;95361.47;5116607;28;1044;-64
2022/12/22 10:22:36;;;;;;;;;;;;;;;17.92;30.13;95364.00;5115425;28;1130;-61
2022/12/22 10:25:04;;;;;;;;;;;;;;;21.26;26.51;95375.88;5103301;28;1174;-61
2022/12/22 10:27:32;;;;;;;;;;;;;;;24.03;23.17;95384.53;5116559;28;1979;-61
2022/12/22 10:30:17;;;;;;;;;;;;;;;25.56;21.16;95397.59;5116672;28;1107;-62
2022/12/22 10:32:59;;;;;;;;;;;;;;;26.60;20.06;95398.81;5116272;28;1020;-62
2022/12/22 10:35:25;;;;;;;;;;;;;;;27.26;19.60;95395.13;5116555;28;953;-62
2022/12/22 10:37:51;;;;;;;;;;;;;;;27.32;20.04;95404.25;5116436;28;1086;-62
2022/12/22 10:40:19;;;;;;;;;;;;;;;26.83;19.98;95397.69;5116483;28;1003;-62
2022/12/22 10:42:47;;;;;;;;;;;;;;;24.43;22.19;95387.28;5116403;28;1023;-61
2022/12/22 10:45:20;;;;;;;;;;;;;;;20.13;25.98;95364.88;5116181;28;992;-61
2022/12/22 10:47:48;;;;;;;;;;;;;;;17.18;29.78;95350.03;5116297;28;1964;-60
2022/12/22 10:50:14;;;;;;;;;;;;;;;16.32;31.44;95331.22;5116298;28;983;-60
2022/12/22 10:52:48;;;;;;;;;;;;;;;18.05;29.75;95325.34;5116179;28;1027;-60
2022/12/22 10:55:17;;;;;;;;;;;;;;;22.27;24.80;95340.34;5116080;28;1083;-61
2022/12/22 10:57:43;;;;;;;;;;;;;;;25.60;21.60;95362.34;5115908;28;1079;-61
2022/12/22 11:00:30;;;;;;;;;;;;;;;28.32;19.09;95363.19;5114977;28;960;-62
2022/12/22 11:02:57;;;;;;;;;;;;;;;30.34;17.98;95379.69;5115931;28;1071;-62
2022/12/22 11:05:23;;;;;;;;;;;;;;;31.05;16.93;95386.84;5115691;28;1016;-62
2022/12/22 11:07:50;;;;;;;;;;;;;;;31.01;16.45;95393.22;5115810;28;1894;-62
2022/12/22 11:10:25;;;;;;;;;;;;;;;29.78;16.86;95373.19;5115761;28;1003;-62
2022/12/22 11:12:58;;;;;;;;;;;;;;;27.80;18.85;95362.06;5115869;27;992;-62
2022/12/22 11:15:30;;;;;;;;;;;;;;;26.25;19.80;95356.13;5115738;28;1023;-62
2022/12/22 11:18:05;;;;;;;;;;;;;;;25.56;20.64;95345.56;5115564;28;991;-62
2022/12/22 11:20:34;;;;;;;;;;;;;;;24.35;21.41;95333.84;5115442;28;1059;-61
2022/12/22 11:23:15;;;;;;;;;;;;;;;25.08;21.02;95331.38;5115479;28;1055;-61
2022/12/22 11:25:41;;;;;;;;;;;;;;;27.16;18.95;95335.44;5114368;28;1012;-62
2022/12/22 11:28:15;;;;;;;;;;;;;;;27.85;18.51;95342.06;5115313;28;1906;-62
2022/12/22 11:30:53;;;;;;;;;;;;;;;27.72;18.31;95337.84;5115332;28;1047;-62
2022/12/22 11:33:38;;;;;;;;;;;;;;;27.10;18.55;95332.94;5115172;28;1074;-62
2022/12/22 11:36:08;;;;;;;;;;;;;;;26.72;18.93;95329.28;5114050;28;1071;-62
2022/12/22 11:38:53;;;;;;;;;;;;;;;26.59;19.11;95319.53;5115052;28;1051;-62
2022/12/22 11:41:38;;;;;;;;;;;;;;;26.19;19.00;95318.78;5113837;28;908;-62
2022/12/22 11:44:22;;;;;;;;;;;;;;;24.84;20.39;95308.00;5114150;28;1031;-61
2022/12/22 11:46:52;;;;;;;;;;;;;;;22.19;22.51;95297.84;5115099;28;1981;-61
2022/12/22 11:49:36;;;;;;;;;;;;;;;18.61;26.13;95280.88;5113821;28;1264;-61
2022/12/22 11:52:02;;;;;;;;;;;;;;;15.48;30.04;95255.38;5113725;28;1045;-61
2022/12/22 11:54:44;;;;;;;;;;;;;;;13.73;32.91;95248.34;5115060;28;1034;-60
2022/12/22 11:57:19;;;;;;;;;;;;;;;12.69;34.54;95237.75;5113674;28;1071;-60
2022/12/22 11:59:45;;;;;;;;;;;;;;;11.91;36.46;95230.28;5114760;28;1032;-60
2022/12/22 12:02:32;;;;;;;;;;;;;;;11.61;37.40;95218.34;5114664;28;1194;-60
2022/12/22 12:05:04;;;;;;;;;;;;;;;11.14;37.15;95220.63;5114993;28;960;-60
2022/12/22 12:07:35;;;;;;;;;;;;;;;10.95;38.36;95207.53;5114461;28;1910;-60
2022/12/22 12:10:17;;;;;;;;;;;;;;;10.90;38.90;95199.13;5113632;28;956;-60
2022/12/22 12:13:02;;;;;;;;;;;;;;;10.87;38.73;95189.59;5114944;28;948;-60
2022/12/22 12:15:31;;;;;;;;;;;;;;;10.79;39.30;95180.69;5114378;28;948;-60
2022/12/22 12:18:00;;;;;;;;;;;;;;;10.58;39.18;95175.78;5114766;28;1022;-60
2022/12/22 12:20:44;;;;;;;;;;;;;;;10.44;40.33;95179.91;5114545;28;940;-61
2022/12/22 12:23:13;;;;;;;;;;;;;;;10.37;39.88;95178.84;5114393;28;1028;-60
2022/12/22 12:25:48;;;;;;;;;;;;;;;10.29;40.87;95169.75;5114162;28;1062;-60
2022/12/22 12:28:15;;;;;;;;;;;;;;;10.20;40.86;95161.84;5112796;28;1910;-60
2022/12/22 12:30:52;;;;;;;;;;;;;;;10.01;41.89;95155.72;5114179;28;1011;-60
2022/12/22 12:33:37;;;;;;;;;;;;;;;9.92;42.97;95149.50;5114403;28;960;-60
2022/12/22 12:36:06;;;;;;;;;;;;;;;9.83;43.06;95153.13;5114188;28;968;-60
2022/12/22 12:38:40;;;;;;;;;;;;;;;9.78;42.27;95150.06;5112923;28;1036;-60
2022/12/22 12:41:17;;;;;;;;;;;;;;;9.60;43.48;95151.94;5114191;28;1273;-60
2022/12/22 12:43:44;;;;;;;;;;;;;;;9.44;43.88;95142.81;5114041;28;1564;-60
2022/12/22 12:46:28;;;;;;;;;;;;;;;9.32;44.32;95136.03;5114076;28;1909;-60
2022/12/22 12:48:55;;;;;;;;;;;;;;;9.17;44.71;95133.91;5113942;28;1549;-60
2022/12/22 12:51:40;;;;;;;;;;;;;;;9.06;45.97;95130.63;5113958;28;1044;-60
2022/12/22 12:54:24;;;;;;;;;;;;;;;9.05;46.07;95132.47;5112960;28;1173;-62
2022/12/22 12:57:06;;;;;;;;;;;;;;;8.93;47.14;95128.34;5112863;28;1143;-61
2022/12/22 12:59:38;;;;;;;;;;;;;;;8.99;45.81;95123.25;5114087;28;1028;-61
2022/12/22 13:02:24;;;;;;;;;;;;;;;8.91;46.57;95127.66;5113689;28;1345;-61
2022/12/22 13:05:00;;;;;;;;;;;;;;;8.88;47.69;95126.13;5113900;28;1231;-61
2022/12/22 13:07:45;;;;;;;;;;;;;;;8.71;48.63;95117.13;5113750;28;1909;-61
2022/12/22 13:10:22;;;;;;;;;;;;;;;8.63;49.60;95110.88;5114070;28;983;-61
2022/12/22 13:12:50;;;;;;;;;;;;;;;8.49;49.78;95107.72;5113658;28;1146;-61
2022/12/22 13:15:36;;;;;;;;;;;;;;;8.39;50.82;95112.25;5113802;28;1102;-61
2022/12/22 13:18:07;;;;;;;;;;;;;;;8.47;48.43;95116.88;5113692;28;944;-64
2022/12/22 13:20:34;;;;;;;;;;;;;;;8.49;48.40;95113.06;5112483;28;1071;-60
2022/12/22 13:23:02;;;;;;;;;;;;;;;8.54;49.56;95117.94;5113763;28;1153;-59
2022/12/22 13:25:40;;;;;;;;;;;;;;;8.47;50.47;95108.88;5113739;28;995;-59
2022/12/22 13:28:11;;;;;;;;;;;;;;;8.42;50.55;95109.28;5113654;28;1972;-59
2022/12/22 13:30:38;;;;;;;;;;;;;;;8.43;50.56;95110.16;5113645;28;1051;-60
2022/12/22 13:33:10;;;;;;;;;;;;;;;8.46;49.45;95113.38;5113881;28;1006;-60
2022/12/22 13:35:38;;;;;;;;;;;;;;;8.35;49.72;95116.19;5113582;28;1047;-60
2022/12/22 13:38:04;;;;;;;;;;;;;;;8.37;48.68;95112.38;5113625;28;1040;-60
2022/12/22 13:40:38;;;;;;;;;;;;;;;8.33;49.00;95115.50;5113619;28;1078;-60
2022/12/22 13:43:09;;;;;;;;;;;;;;;8.28;48.86;95118.59;5117574;28;1035;-60
2022/12/22 13:45:43;;;;;;;;;;;;;;;8.29;49.26;95120.28;5117665;28;1043;-60
2022/12/22 13:48:15;;;;;;;;;;;;;;;8.24;49.34;95116.41;5116106;28;1973;-60
2022/12/22 13:50:43;;;;;;;;;;;;;;;8.22;48.89;95119.19;5116126;28;1017;-60
2022/12/22 13:53:10;;;;;;;;;;;;;;;8.30;48.83;95113.13;5117366;28;1080;-60
2022/12/22 13:55:37;;;;;;;;;;;;;;;8.27;49.42;95119.59;5117215;28;1114;-60
2022/12/22 13:58:05;;;;;;;;;;;;;;;8.25;50.15;95116.22;5117446;28;991;-60
2022/12/22 14:00:32;;;;;;;;;;;;;;;8.22;50.81;95113.88;5117114;28;1219;-60
2022/12/22 14:02:58;;;;;;;;;;;;;;;8.15;51.40;95104.78;5117308;28;1027;-60
2022/12/22 14:05:28;;;;;;;;;;;;;;;8.04;51.94;95105.81;5117090;28;1027;-60
2022/12/22 14:08:03;;;;;;;;;;;;;;;7.97;52.54;95100.25;5117025;28;2035;-60
2022/12/22 14:10:34;;;;;;;;;;;;;;;7.93;52.42;95103.31;5116962;28;1122;-60
2022/12/22 14:13:03;;;;;;;;;;;;;;;7.69;53.18;95104.69;5113160;28;1468;-60
2022/12/22 14:15:29;;;;;;;;;;;;;;;7.60;53.45;95105.53;5116899;28;1030;-60
2022/12/22 14:17:55;;;;;;;;;;;;;;;7.48;53.57;95104.88;5116888;28;956;-60
2022/12/22 14:20:36;;;;;;;;;;;;;;;7.41;53.91;95101.94;5116691;28;1028;-61
2022/12/22 14:23:06;;;;;;;;;;;;;;;7.21;54.29;95105.63;5117044;28;1031;-61
2022/12/22 14:25:37;;;;;;;;;;;;;;;7.11;54.57;95104.78;5116848;28;1039;-61
2022/12/22 14:28:05;;;;;;;;;;;;;;;7.13;54.46;95101.00;5116789;28;1906;-61
2022/12/22 14:30:36;;;;;;;;;;;;;;;6.96;55.01;95099.03;5116636;28;1003;-61
2022/12/22 14:33:21;;;;;;;;;;;;;;;6.91;54.96;95090.66;5116595;28;1007;-61
2022/12/22 14:35:47;;;;;;;;;;;;;;;6.67;55.57;95099.03;5116483;28;1099;-61
2022/12/22 14:38:23;;;;;;;;;;;;;;;6.64;55.53;95094.84;5116678;28;1119;-61
2022/12/22 14:40:50;;;;;;;;;;;;;;;6.57;55.33;95096.38;5116391;28;1051;-61
2022/12/22 14:43:16;;;;;;;;;;;;;;;6.43;55.11;95090.50;5115551;28;1345;-60
2022/12/22 14:45:46;;;;;;;;;;;;;;;6.39;55.63;95099.72;5116273;28;1019;-60
2022/12/22 14:48:32;;;;;;;;;;;;;;;6.26;56.03;95099.13;5116106;28;1910;-60
2022/12/22 14:51:00;;;;;;;;;;;;;;;6.17;56.15;95113.22;5116272;28;998;-60
2022/12/22 14:53:31;;;;;;;;;;;;;;;6.03;55.91;95109.94;5114082;28;1193;-60
2022/12/22 14:55:57;;;;;;;;;;;;;;;5.98;56.13;95106.84;5115031;28;1000;-60
2022/12/22 14:58:33;;;;;;;;;;;;;;;5.89;56.52;95120.06;5114845;28;883;-60
2022/12/22 15:01:17;;;;;;;;;;;;;;;5.86;56.36;95119.34;5114866;28;1262;-60
2022/12/22 15:03:55;;;;;;;;;;;;;;;5.78;56.35;95124.47;5115917;28;1161;-60
2022/12/22 15:06:27;;;;;;;;;;;;;;;5.64;56.65;95128.31;5115926;28;1996;-60
2022/12/22 15:09:10;;;;;;;;;;;;;;;5.59;56.82;95125.19;5115957;28;1272;-60
2022/12/22 15:11:37;;;;;;;;;;;;;;;5.44;57.36;95131.81;5114653;28;1074;-61
2022/12/22 15:14:04;;;;;;;;;;;;;;;5.29;58.04;95126.00;5115590;28;1022;-60
2022/12/22 15:16:30;;;;;;;;;;;;;;;5.18;57.60;95129.56;5115724;28;1015;-60
2022/12/22 15:18:56;;;;;;;;;;;;;;;4.95;58.11;95131.50;5115736;28;1022;-60
2022/12/22 15:21:22;;;;;;;;;;;;;;;4.86;58.48;95130.44;5115569;28;992;-60
2022/12/22 15:23:48;;;;;;;;;;;;;;;4.77;58.60;95128.53;5115608;28;1096;-60
2022/12/22 15:26:15;;;;;;;;;;;;;;;4.80;58.43;95128.28;5115405;28;1918;-60
2022/12/22 15:28:41;;;;;;;;;;;;;;;4.78;58.35;95129.38;5115577;28;1023;-60
2022/12/22 15:31:13;;;;;;;;;;;;;;;4.63;58.35;95132.31;5115580;28;951;-60
2022/12/22 15:33:39;;;;;;;;;;;;;;;4.61;59.18;95139.56;5115046;28;1051;-60
2022/12/22 15:36:09;;;;;;;;;;;;;;;4.44;59.13;95142.69;5115318;28;1063;-60
2022/12/22 15:38:37;;;;;;;;;;;;;;;4.32;59.30;95141.88;5115393;28;1062;-60
2022/12/22 15:41:03;;;;;;;;;;;;;;;4.20;59.74;95140.25;5115388;28;991;-60
2022/12/22 15:43:29;;;;;;;;;;;;;;;4.36;59.65;95145.97;5114998;28;1111;-60
2022/12/22 15:45:55;;;;;;;;;;;;;;;4.47;59.12;95140.66;5113932;28;1051;-60
2022/12/22 15:48:27;;;;;;;;;;;;;;;4.50;58.50;95148.34;5114776;28;1897;-60
2022/12/22 15:50:54;;;;;;;;;;;;;;;4.48;58.66;95138.88;5115377;28;1296;-60
2022/12/22 15:53:20;;;;;;;;;;;;;;;4.50;58.45;95136.94;5115129;28;998;-60
2022/12/22 15:55:49;;;;;;;;;;;;;;;4.46;58.38;95135.50;5114728;28;1038;-60
2022/12/22 15:58:17;;;;;;;;;;;;;;;4.45;58.54;95141.75;5114905;28;1178;-60
2022/12/22 16:00:44;;;;;;;;;;;;;;;4.28;59.14;95138.66;5114722;28;1364;-60
2022/12/22 16:03:11;;;;;;;;;;;;;;;4.22;59.24;95140.97;5114369;27;999;-60
2022/12/22 16:05:39;;;;;;;;;;;;;;;4.18;59.21;95144.81;5114124;28;1160;-60
2022/12/22 16:08:13;;;;;;;;;;;;;;;4.07;59.59;95149.13;5114874;28;2027;-60
2022/12/22 16:10:39;;;;;;;;;;;;;;;3.89;60.25;95154.09;5114744;28;1042;-60
2022/12/22 16:13:09;;;;;;;;;;;;;;;3.85;60.02;95157.94;5114717;28;1002;-60
2022/12/22 16:15:35;;;;;;;;;;;;;;;3.90;59.98;95160.22;5114192;28;1085;-59
2022/12/22 16:18:01;;;;;;;;;;;;;;;3.97;60.03;95169.38;5114776;28;1052;-59
2022/12/22 16:20:28;;;;;;;;;;;;;;;3.87;60.34;95168.38;5114650;28;1019;-59
2022/12/22 16:22:55;;;;;;;;;;;;;;;3.78;60.31;95156.72;5114646;28;991;-59
2022/12/22 16:25:24;;;;;;;;;;;;;;;3.79;60.59;95157.56;5114036;28;1044;-59
2022/12/22 16:27:50;;;;;;;;;;;;;;;3.82;60.46;95158.16;5113242;28;1905;-59
2022/12/22 16:30:18;;;;;;;;;;;;;;;3.86;59.98;95156.13;5114342;28;1028;-59
2022/12/22 16:32:44;;;;;;;;;;;;;;;3.82;59.52;95157.34;5114302;28;1075;-59
2022/12/22 16:35:11;;;;;;;;;;;;;;;3.60;60.38;95161.63;5114221;28;1159;-59
2022/12/22 16:37:37;;;;;;;;;;;;;;;3.54;61.02;95175.31;5114269;28;927;-59
2022/12/22 16:40:04;;;;;;;;;;;;;;;3.48;60.28;95179.28;5114277;28;1027;-59
2022/12/22 16:42:30;;;;;;;;;;;;;;;3.59;60.04;95173.19;5114105;28;989;-59
2022/12/22 16:44:56;;;;;;;;;;;;;;;3.66;60.55;95179.69;5113844;28;1160;-59
2022/12/22 16:47:27;;;;;;;;;;;;;;;3.49;60.37;95178.34;5113864;28;2009;-59
2022/12/22 16:49:54;;;;;;;;;;;;;;;3.62;60.19;95183.50;5114009;28;1008;-59
2022/12/22 16:52:26;;;;;;;;;;;;;;;3.63;59.49;95179.91;5114071;28;1016;-59
2022/12/22 16:54:52;;;;;;;;;;;;;;;3.47;59.82;95184.69;5113770;28;1560;-59
2022/12/22 16:57:18;;;;;;;;;;;;;;;3.52;59.78;95177.25;5113887;28;941;-59